CheckWX is a tool to help pilots better visualize weather data.  It is not intended as a substitute for an official pre-flight weather briefing.

21:29:48 UTC

KBLI TAF
Bellingham International Airport
Bellingham, Washington, USA
KBLI 221810Z 2218/2318 24007KT P6SM SCT012 FM222300 25007KT P6SM SCT040 FM230100 VRB03KT P6SM BKN035 FM230400 VRB03KT P6SM OVC030 FM230800 VRB03KT P6SM OVC025

Oct-22@
18:00 UTC

Oct-22 @ 18:00 UTC

Oct-22@
23:00 UTC

Oct-22 @ 23:00 UTC

KBLI 221810Z 2218/2318 24007KT P6SM SCT012
Wind
  • 240° at 7 KTS
Cloud Levels
  • Scattered at 1,200' AGL

Oct-22@
23:00 UTC

Oct-22 @ 23:00 UTC

Oct-23@
01:00 UTC

Oct-23 @ 01:00 UTC

FM222300 25007KT P6SM SCT040

From

From Standard forecast or significant change

Wind
  • 250° at 7 KTS
Cloud Levels
  • Scattered at 4,000' AGL

Oct-23@
01:00 UTC

Oct-23 @ 01:00 UTC

Oct-23@
04:00 UTC

Oct-23 @ 04:00 UTC

FM230100 VRB03KT P6SM BKN035

From

From Standard forecast or significant change

Wind
  • Variable at 3 KTS
Cloud Levels
  • Broken at 3,500' AGL

Oct-23@
04:00 UTC

Oct-23 @ 04:00 UTC

Oct-23@
08:00 UTC

Oct-23 @ 08:00 UTC

FM230400 VRB03KT P6SM OVC030

From

From Standard forecast or significant change

Wind
  • Variable at 3 KTS
Cloud Levels
  • Overcast at 3,000' AGL

Oct-23@
08:00 UTC

Oct-23 @ 08:00 UTC

Oct-23@
18:00 UTC

Oct-23 @ 18:00 UTC

FM230800 VRB03KT P6SM OVC025

From

From Standard forecast or significant change

Wind
  • Variable at 3 KTS
Cloud Levels
  • Overcast at 2,500' AGL